Werris Creek, Australia
Current Conditions -  °F | °C
As of 4:30 AM on Sunday 26 Oct 2014 (Local Time) from YSTW Reporting Station
Clear Clear  
Wind Chill: 64°   Ceiling: Unl
Heat Index: 64°   Visibility: 6mi
Dew Point: 45°   Wind: 6mph
Humidity: 49%   Direction: 230°SW
Pressure: 29.94"   Gusts: NA
Location:  31.35°S, 150.65°E
Report Text: YSTW 251730Z AUTO 23005KT 9999 // NCD 18/07 Q1014
Loading
Personal Weather Stations






























Interactive Weather Map
Tropical Storm Tracking
New forecast layout! Learn more

10-Day Weather Forecast

Advertisements
Track Severe Weather on mobile